sensor_id;sensor_type;location;lat;lon;timestamp;P1;durP1;ratioP1;P2;durP2;ratioP2
1613;SDS011;800;48.824;9.346;2023-02-12T00:01:44;22.23;;;17.70;;
1613;SDS011;800;48.824;9.346;2023-02-12T00:04:10;22.87;;;18.60;;
1613;SDS011;800;48.824;9.346;2023-02-12T00:06:42;25.73;;;19.33;;
1613;SDS011;800;48.824;9.346;2023-02-12T00:09:14;24.37;;;19.03;;
1613;SDS011;800;48.824;9.346;2023-02-12T00:11:39;23.50;;;19.00;;
1613;SDS011;800;48.824;9.346;2023-02-12T00:14:09;24.50;;;19.00;;
1613;SDS011;800;48.824;9.346;2023-02-12T00:16:43;23.87;;;17.67;;
1613;SDS011;800;48.824;9.346;2023-02-12T00:19:11;24.67;;;18.63;;
1613;SDS011;800;48.824;9.346;2023-02-12T00:21:40;23.10;;;18.13;;
1613;SDS011;800;48.824;9.346;2023-02-12T00:24:11;24.37;;;17.93;;
1613;SDS011;800;48.824;9.346;2023-02-12T00:26:43;23.43;;;19.27;;
1613;SDS011;800;48.824;9.346;2023-02-12T00:29:15;22.20;;;19.10;;
1613;SDS011;800;48.824;9.346;2023-02-12T00:31:41;26.43;;;19.50;;
1613;SDS011;800;48.824;9.346;2023-02-12T00:34:08;28.77;;;21.20;;
1613;SDS011;800;48.824;9.346;2023-02-12T00:36:40;28.27;;;21.43;;
1613;SDS011;800;48.824;9.346;2023-02-12T00:39:14;24.90;;;20.07;;
1613;SDS011;800;48.824;9.346;2023-02-12T00:41:39;26.20;;;20.20;;
1613;SDS011;800;48.824;9.346;2023-02-12T00:44:08;27.53;;;21.47;;
1613;SDS011;800;48.824;9.346;2023-02-12T00:46:33;27.10;;;20.33;;
1613;SDS011;800;48.824;9.346;2023-02-12T00:48:59;29.40;;;20.83;;
1613;SDS011;800;48.824;9.346;2023-02-12T00:51:24;30.53;;;21.50;;
1613;SDS011;800;48.824;9.346;2023-02-12T00:53:50;27.23;;;20.50;;
1613;SDS011;800;48.824;9.346;2023-02-12T00:56:15;28.60;;;21.37;;
1613;SDS011;800;48.824;9.346;2023-02-12T00:58:41;33.70;;;21.37;;
1613;SDS011;800;48.824;9.346;2023-02-12T01:01:07;28.37;;;21.67;;
1613;SDS011;800;48.824;9.346;2023-02-12T01:03:33;28.10;;;23.27;;
1613;SDS011;800;48.824;9.346;2023-02-12T01:05:58;29.47;;;20.70;;
1613;SDS011;800;48.824;9.346;2023-02-12T01:08:24;31.33;;;21.47;;
1613;SDS011;800;48.824;9.346;2023-02-12T01:10:55;28.53;;;21.53;;
1613;SDS011;800;48.824;9.346;2023-02-12T01:13:27;31.83;;;22.30;;
1613;SDS011;800;48.824;9.346;2023-02-12T01:16:20;31.03;;;22.87;;
1613;SDS011;800;48.824;9.346;2023-02-12T01:18:47;28.33;;;22.10;;
1613;SDS011;800;48.824;9.346;2023-02-12T01:21:23;30.80;;;21.40;;
1613;SDS011;800;48.824;9.346;2023-02-12T01:23:54;31.80;;;23.13;;
1613;SDS011;800;48.824;9.346;2023-02-12T01:26:20;30.03;;;21.23;;
1613;SDS011;800;48.824;9.346;2023-02-12T01:28:54;27.60;;;21.70;;
1613;SDS011;800;48.824;9.346;2023-02-12T01:31:26;30.50;;;21.63;;
1613;SDS011;800;48.824;9.346;2023-02-12T01:33:54;27.07;;;20.73;;
1613;SDS011;800;48.824;9.346;2023-02-12T01:36:21;26.87;;;22.57;;
1613;SDS011;800;48.824;9.346;2023-02-12T01:38:48;23.60;;;21.07;;
1613;SDS011;800;48.824;9.346;2023-02-12T01:41:14;26.23;;;20.70;;
1613;SDS011;800;48.824;9.346;2023-02-12T01:43:45;30.60;;;21.70;;
1613;SDS011;800;48.824;9.346;2023-02-12T01:46:29;28.20;;;22.07;;
1613;SDS011;800;48.824;9.346;2023-02-12T01:48:54;33.07;;;22.70;;
1613;SDS011;800;48.824;9.346;2023-02-12T01:51:20;30.67;;;22.03;;
1613;SDS011;800;48.824;9.346;2023-02-12T01:53:49;28.70;;;21.60;;
1613;SDS011;800;48.824;9.346;2023-02-12T01:56:17;26.60;;;20.60;;
1613;SDS011;800;48.824;9.346;2023-02-12T01:58:44;25.40;;;20.13;;
1613;SDS011;800;48.824;9.346;2023-02-12T02:01:16;26.50;;;21.83;;
1613;SDS011;800;48.824;9.346;2023-02-12T02:03:46;26.87;;;20.53;;
1613;SDS011;800;48.824;9.346;2023-02-12T02:06:15;26.00;;;19.40;;
1613;SDS011;800;48.824;9.346;2023-02-12T02:08:48;26.47;;;21.23;;
1613;SDS011;800;48.824;9.346;2023-02-12T02:11:14;25.33;;;20.20;;
1613;SDS011;800;48.824;9.346;2023-02-12T02:13:58;25.67;;;20.27;;
1613;SDS011;800;48.824;9.346;2023-02-12T02:16:45;28.37;;;20.90;;
1613;SDS011;800;48.824;9.346;2023-02-12T02:22:19;28.73;;;21.13;;
1613;SDS011;800;48.824;9.346;2023-02-12T02:33:55;31.83;;;21.80;;
1613;SDS011;800;48.824;9.346;2023-02-12T02:41:52;25.90;;;19.67;;
1613;SDS011;800;48.824;9.346;2023-02-12T02:44:26;28.83;;;21.73;;
1613;SDS011;800;48.824;9.346;2023-02-12T02:46:57;27.20;;;21.93;;
1613;SDS011;800;48.824;9.346;2023-02-12T02:49:28;26.53;;;20.93;;
1613;SDS011;800;48.824;9.346;2023-02-12T02:52:04;25.40;;;19.83;;
1613;SDS011;800;48.824;9.346;2023-02-12T02:54:39;28.80;;;21.47;;
1613;SDS011;800;48.824;9.346;2023-02-12T02:57:12;24.97;;;19.70;;
1613;SDS011;800;48.824;9.346;2023-02-12T02:59:45;29.87;;;21.77;;
1613;SDS011;800;48.824;9.346;2023-02-12T03:02:15;25.50;;;20.40;;
1613;SDS011;800;48.824;9.346;2023-02-12T03:04:46;22.90;;;19.43;;
1613;SDS011;800;48.824;9.346;2023-02-12T03:07:18;30.97;;;21.60;;
1613;SDS011;800;48.824;9.346;2023-02-12T03:09:51;28.60;;;20.30;;
1613;SDS011;800;48.824;9.346;2023-02-12T03:15:16;26.13;;;19.07;;
1613;SDS011;800;48.824;9.346;2023-02-12T03:17:58;24.80;;;20.37;;
1613;SDS011;800;48.824;9.346;2023-02-12T03:20:35;24.53;;;19.90;;
1613;SDS011;800;48.824;9.346;2023-02-12T03:23:09;26.03;;;21.20;;
1613;SDS011;800;48.824;9.346;2023-02-12T03:25:39;24.27;;;19.17;;
1613;SDS011;800;48.824;9.346;2023-02-12T03:28:18;26.17;;;19.43;;
1613;SDS011;800;48.824;9.346;2023-02-12T03:33:28;23.43;;;18.60;;
1613;SDS011;800;48.824;9.346;2023-02-12T03:39:12;25.50;;;19.17;;
1613;SDS011;800;48.824;9.346;2023-02-12T03:42:29;22.80;;;18.17;;
1613;SDS011;800;48.824;9.346;2023-02-12T03:52:44;23.30;;;19.20;;
1613;SDS011;800;48.824;9.346;2023-02-12T03:55:11;28.63;;;20.47;;
1613;SDS011;800;48.824;9.346;2023-02-12T03:57:44;26.10;;;19.03;;
1613;SDS011;800;48.824;9.346;2023-02-12T04:00:16;25.40;;;19.50;;
1613;SDS011;800;48.824;9.346;2023-02-12T04:02:44;25.80;;;18.73;;
1613;SDS011;800;48.824;9.346;2023-02-12T04:05:21;24.73;;;20.00;;
1613;SDS011;800;48.824;9.346;2023-02-12T04:07:48;25.87;;;20.40;;
1613;SDS011;800;48.824;9.346;2023-02-12T04:10:15;25.30;;;19.50;;
1613;SDS011;800;48.824;9.346;2023-02-12T04:18:11;27.67;;;19.13;;
1613;SDS011;800;48.824;9.346;2023-02-12T04:24:02;25.30;;;20.17;;
1613;SDS011;800;48.824;9.346;2023-02-12T04:26:35;25.70;;;20.30;;
1613;SDS011;800;48.824;9.346;2023-02-12T04:32:11;24.17;;;19.73;;
1613;SDS011;800;48.824;9.346;2023-02-12T04:34:48;22.40;;;18.90;;
1613;SDS011;800;48.824;9.346;2023-02-12T04:37:22;24.77;;;19.13;;
1613;SDS011;800;48.824;9.346;2023-02-12T04:39:54;23.57;;;19.20;;
1613;SDS011;800;48.824;9.346;2023-02-12T04:42:22;28.50;;;20.43;;
1613;SDS011;800;48.824;9.346;2023-02-12T04:44:47;26.23;;;20.30;;
1613;SDS011;800;48.824;9.346;2023-02-12T04:47:13;26.10;;;19.53;;
1613;SDS011;800;48.824;9.346;2023-02-12T04:49:40;29.10;;;19.53;;
1613;SDS011;800;48.824;9.346;2023-02-12T04:52:06;23.57;;;18.80;;
1613;SDS011;800;48.824;9.346;2023-02-12T04:54:33;30.23;;;21.10;;
1613;SDS011;800;48.824;9.346;2023-02-12T04:56:58;28.77;;;22.30;;
1613;SDS011;800;48.824;9.346;2023-02-12T04:59:24;27.63;;;21.23;;
1613;SDS011;800;48.824;9.346;2023-02-12T05:01:50;29.10;;;19.90;;
1613;SDS011;800;48.824;9.346;2023-02-12T05:04:15;29.00;;;21.33;;
1613;SDS011;800;48.824;9.346;2023-02-12T05:06:42;29.27;;;21.37;;
1613;SDS011;800;48.824;9.346;2023-02-12T05:09:09;24.33;;;20.30;;
1613;SDS011;800;48.824;9.346;2023-02-12T05:11:38;26.87;;;19.47;;
1613;SDS011;800;48.824;9.346;2023-02-12T05:14:04;26.53;;;20.53;;
1613;SDS011;800;48.824;9.346;2023-02-12T05:16:29;25.43;;;21.47;;
1613;SDS011;800;48.824;9.346;2023-02-12T05:18:55;28.67;;;20.57;;
1613;SDS011;800;48.824;9.346;2023-02-12T05:21:21;28.60;;;20.30;;
1613;SDS011;800;48.824;9.346;2023-02-12T05:23:46;27.83;;;20.80;;
1613;SDS011;800;48.824;9.346;2023-02-12T05:26:13;28.40;;;21.50;;
1613;SDS011;800;48.824;9.346;2023-02-12T05:28:40;27.27;;;21.27;;
1613;SDS011;800;48.824;9.346;2023-02-12T05:31:07;27.30;;;21.97;;
1613;SDS011;800;48.824;9.346;2023-02-12T05:33:34;26.50;;;21.70;;
1613;SDS011;800;48.824;9.346;2023-02-12T05:38:29;29.67;;;21.77;;
1613;SDS011;800;48.824;9.346;2023-02-12T05:41:00;28.33;;;21.33;;
1613;SDS011;800;48.824;9.346;2023-02-12T05:43:29;30.00;;;22.27;;
1613;SDS011;800;48.824;9.346;2023-02-12T05:45:59;28.90;;;21.73;;
1613;SDS011;800;48.824;9.346;2023-02-12T05:48:29;25.97;;;20.40;;
1613;SDS011;800;48.824;9.346;2023-02-12T05:51:28;27.17;;;21.33;;
1613;SDS011;800;48.824;9.346;2023-02-12T05:53:49;27.13;;;19.47;;
1613;SDS011;800;48.824;9.346;2023-02-12T05:56:17;27.53;;;20.90;;
1613;SDS011;800;48.824;9.346;2023-02-12T05:58:47;30.33;;;23.00;;
1613;SDS011;800;48.824;9.346;2023-02-12T06:01:17;29.90;;;22.27;;
1613;SDS011;800;48.824;9.346;2023-02-12T06:03:51;28.87;;;21.97;;
1613;SDS011;800;48.824;9.346;2023-02-12T06:06:16;25.57;;;21.53;;
1613;SDS011;800;48.824;9.346;2023-02-12T06:08:42;29.37;;;22.83;;
1613;SDS011;800;48.824;9.346;2023-02-12T06:11:12;32.90;;;20.43;;
1613;SDS011;800;48.824;9.346;2023-02-12T06:13:38;28.30;;;21.87;;
1613;SDS011;800;48.824;9.346;2023-02-12T06:16:04;31.50;;;21.83;;
1613;SDS011;800;48.824;9.346;2023-02-12T06:18:29;25.83;;;19.97;;
1613;SDS011;800;48.824;9.346;2023-02-12T06:20:55;25.97;;;20.47;;
1613;SDS011;800;48.824;9.346;2023-02-12T06:23:21;26.20;;;20.93;;
1613;SDS011;800;48.824;9.346;2023-02-12T06:25:48;25.10;;;20.20;;
1613;SDS011;800;48.824;9.346;2023-02-12T06:28:15;21.50;;;18.07;;
1613;SDS011;800;48.824;9.346;2023-02-12T06:30:41;26.70;;;20.07;;
1613;SDS011;800;48.824;9.346;2023-02-12T06:33:07;17.80;;;14.80;;
1613;SDS011;800;48.824;9.346;2023-02-12T06:35:36;25.20;;;20.20;;
1613;SDS011;800;48.824;9.346;2023-02-12T06:38:02;27.20;;;19.43;;
1613;SDS011;800;48.824;9.346;2023-02-12T06:40:28;26.73;;;19.70;;
1613;SDS011;800;48.824;9.346;2023-02-12T06:42:54;25.23;;;19.27;;
1613;SDS011;800;48.824;9.346;2023-02-12T06:45:19;23.33;;;18.53;;
1613;SDS011;800;48.824;9.346;2023-02-12T06:47:45;25.37;;;19.20;;
1613;SDS011;800;48.824;9.346;2023-02-12T06:50:10;30.90;;;19.50;;
1613;SDS011;800;48.824;9.346;2023-02-12T06:52:36;27.50;;;19.17;;
1613;SDS011;800;48.824;9.346;2023-02-12T06:55:01;23.33;;;18.73;;
1613;SDS011;800;48.824;9.346;2023-02-12T06:57:27;22.13;;;18.80;;
1613;SDS011;800;48.824;9.346;2023-02-12T06:59:53;25.97;;;19.83;;
1613;SDS011;800;48.824;9.346;2023-02-12T07:02:19;26.77;;;19.97;;
1613;SDS011;800;48.824;9.346;2023-02-12T07:04:45;25.10;;;20.37;;
1613;SDS011;800;48.824;9.346;2023-02-12T07:07:11;24.03;;;20.50;;
1613;SDS011;800;48.824;9.346;2023-02-12T07:09:36;20.77;;;17.77;;
1613;SDS011;800;48.824;9.346;2023-02-12T07:12:02;23.07;;;20.37;;
1613;SDS011;800;48.824;9.346;2023-02-12T07:14:28;21.90;;;17.53;;
1613;SDS011;800;48.824;9.346;2023-02-12T07:16:54;26.30;;;20.77;;
1613;SDS011;800;48.824;9.346;2023-02-12T07:19:20;23.53;;;19.60;;
1613;SDS011;800;48.824;9.346;2023-02-12T07:21:46;26.97;;;19.77;;
1613;SDS011;800;48.824;9.346;2023-02-12T07:24:12;23.90;;;19.70;;
1613;SDS011;800;48.824;9.346;2023-02-12T07:26:39;23.37;;;19.80;;
1613;SDS011;800;48.824;9.346;2023-02-12T07:29:06;20.77;;;17.37;;
1613;SDS011;800;48.824;9.346;2023-02-12T07:31:32;23.20;;;17.80;;
1613;SDS011;800;48.824;9.346;2023-02-12T07:33:58;23.67;;;18.20;;
1613;SDS011;800;48.824;9.346;2023-02-12T07:36:25;24.20;;;19.77;;
1613;SDS011;800;48.824;9.346;2023-02-12T07:38:53;21.43;;;18.70;;
1613;SDS011;800;48.824;9.346;2023-02-12T07:41:23;25.80;;;21.20;;
1613;SDS011;800;48.824;9.346;2023-02-12T07:44:06;24.40;;;18.50;;
1613;SDS011;800;48.824;9.346;2023-02-12T07:46:44;27.50;;;20.83;;
1613;SDS011;800;48.824;9.346;2023-02-12T07:49:12;25.03;;;18.50;;
1613;SDS011;800;48.824;9.346;2023-02-12T07:51:46;23.67;;;19.47;;
1613;SDS011;800;48.824;9.346;2023-02-12T07:54:13;27.67;;;20.20;;
1613;SDS011;800;48.824;9.346;2023-02-12T07:56:39;27.50;;;18.13;;
1613;SDS011;800;48.824;9.346;2023-02-12T07:59:07;25.43;;;20.23;;
1613;SDS011;800;48.824;9.346;2023-02-12T08:01:38;25.30;;;21.40;;
1613;SDS011;800;48.824;9.346;2023-02-12T08:04:10;25.37;;;19.70;;
1613;SDS011;800;48.824;9.346;2023-02-12T08:06:39;26.60;;;20.27;;
1613;SDS011;800;48.824;9.346;2023-02-12T08:09:07;23.97;;;18.67;;
1613;SDS011;800;48.824;9.346;2023-02-12T08:11:36;27.33;;;20.07;;
1613;SDS011;800;48.824;9.346;2023-02-12T08:14:03;26.83;;;21.17;;
1613;SDS011;800;48.824;9.346;2023-02-12T08:16:29;24.40;;;20.13;;
1613;SDS011;800;48.824;9.346;2023-02-12T08:18:59;25.70;;;20.63;;
1613;SDS011;800;48.824;9.346;2023-02-12T08:21:25;26.50;;;19.50;;
1613;SDS011;800;48.824;9.346;2023-02-12T08:23:53;24.93;;;21.37;;
1613;SDS011;800;48.824;9.346;2023-02-12T08:28:50;28.20;;;21.63;;
1613;SDS011;800;48.824;9.346;2023-02-12T08:31:19;30.57;;;22.90;;
1613;SDS011;800;48.824;9.346;2023-02-12T08:33:47;29.77;;;23.90;;
1613;SDS011;800;48.824;9.346;2023-02-12T08:36:14;27.73;;;22.47;;
1613;SDS011;800;48.824;9.346;2023-02-12T08:38:42;34.87;;;25.13;;
1613;SDS011;800;48.824;9.346;2023-02-12T08:41:19;31.03;;;26.30;;
1613;SDS011;800;48.824;9.346;2023-02-12T08:43:51;32.03;;;26.00;;
1613;SDS011;800;48.824;9.346;2023-02-12T08:46:36;31.93;;;24.40;;
1613;SDS011;800;48.824;9.346;2023-02-12T08:49:04;30.43;;;23.97;;
1613;SDS011;800;48.824;9.346;2023-02-12T08:51:33;27.00;;;21.60;;
1613;SDS011;800;48.824;9.346;2023-02-12T08:54:00;30.43;;;23.60;;
1613;SDS011;800;48.824;9.346;2023-02-12T08:56:28;36.23;;;25.37;;
1613;SDS011;800;48.824;9.346;2023-02-12T08:58:55;28.40;;;23.80;;
1613;SDS011;800;48.824;9.346;2023-02-12T09:01:22;33.67;;;25.43;;
1613;SDS011;800;48.824;9.346;2023-02-12T09:03:50;30.87;;;23.50;;
1613;SDS011;800;48.824;9.346;2023-02-12T09:06:16;30.43;;;24.33;;
1613;SDS011;800;48.824;9.346;2023-02-12T09:08:44;28.77;;;22.60;;
1613;SDS011;800;48.824;9.346;2023-02-12T09:11:14;32.33;;;25.97;;
1613;SDS011;800;48.824;9.346;2023-02-12T09:13:42;27.97;;;23.53;;
1613;SDS011;800;48.824;9.346;2023-02-12T09:16:09;32.60;;;25.27;;
1613;SDS011;800;48.824;9.346;2023-02-12T09:18:35;33.83;;;25.70;;
1613;SDS011;800;48.824;9.346;2023-02-12T09:21:02;31.87;;;23.10;;
1613;SDS011;800;48.824;9.346;2023-02-12T09:23:33;31.57;;;25.00;;
1613;SDS011;800;48.824;9.346;2023-02-12T09:25:59;35.00;;;26.77;;
1613;SDS011;800;48.824;9.346;2023-02-12T09:28:28;37.27;;;27.27;;
1613;SDS011;800;48.824;9.346;2023-02-12T09:30:54;31.63;;;25.53;;
1613;SDS011;800;48.824;9.346;2023-02-12T09:33:19;30.87;;;23.60;;
1613;SDS011;800;48.824;9.346;2023-02-12T09:35:46;30.17;;;25.47;;
1613;SDS011;800;48.824;9.346;2023-02-12T09:38:12;30.63;;;24.50;;
1613;SDS011;800;48.824;9.346;2023-02-12T09:43:10;33.03;;;25.37;;
1613;SDS011;800;48.824;9.346;2023-02-12T09:45:43;32.20;;;26.10;;
1613;SDS011;800;48.824;9.346;2023-02-12T09:51:17;29.00;;;23.60;;
1613;SDS011;800;48.824;9.346;2023-02-12T09:53:44;28.43;;;21.27;;
1613;SDS011;800;48.824;9.346;2023-02-12T09:56:13;31.13;;;23.20;;
1613;SDS011;800;48.824;9.346;2023-02-12T09:58:52;24.57;;;20.80;;
1613;SDS011;800;48.824;9.346;2023-02-12T10:01:21;28.07;;;20.27;;
1613;SDS011;800;48.824;9.346;2023-02-12T10:03:47;25.73;;;20.07;;
1613;SDS011;800;48.824;9.346;2023-02-12T10:06:25;29.30;;;21.33;;
1613;SDS011;800;48.824;9.346;2023-02-12T10:12:03;23.67;;;19.63;;
1613;SDS011;800;48.824;9.346;2023-02-12T10:17:22;22.53;;;18.57;;
1613;SDS011;800;48.824;9.346;2023-02-12T10:25:54;20.97;;;17.17;;
1613;SDS011;800;48.824;9.346;2023-02-12T10:28:27;21.53;;;14.83;;
1613;SDS011;800;48.824;9.346;2023-02-12T10:39:05;8.93;;;7.33;;
1613;SDS011;800;48.824;9.346;2023-02-12T10:41:32;9.03;;;7.37;;
1613;SDS011;800;48.824;9.346;2023-02-12T10:44:03;10.33;;;7.33;;
1613;SDS011;800;48.824;9.346;2023-02-12T10:46:29;6.90;;;5.27;;
1613;SDS011;800;48.824;9.346;2023-02-12T10:48:56;6.97;;;5.53;;
1613;SDS011;800;48.824;9.346;2023-02-12T10:51:28;7.00;;;6.30;;
1613;SDS011;800;48.824;9.346;2023-02-12T10:57:13;6.43;;;5.60;;
1613;SDS011;800;48.824;9.346;2023-02-12T10:59:48;9.30;;;4.60;;
1613;SDS011;800;48.824;9.346;2023-02-12T11:02:28;5.47;;;4.40;;
1613;SDS011;800;48.824;9.346;2023-02-12T11:04:56;5.27;;;4.40;;
1613;SDS011;800;48.824;9.346;2023-02-12T11:07:23;5.57;;;4.90;;
1613;SDS011;800;48.824;9.346;2023-02-12T11:09:51;6.23;;;5.50;;
1613;SDS011;800;48.824;9.346;2023-02-12T11:12:33;6.73;;;5.27;;
1613;SDS011;800;48.824;9.346;2023-02-12T11:15:28;4.90;;;4.40;;
1613;SDS011;800;48.824;9.346;2023-02-12T11:18:00;5.67;;;5.07;;
1613;SDS011;800;48.824;9.346;2023-02-12T11:23:03;7.40;;;6.67;;
1613;SDS011;800;48.824;9.346;2023-02-12T11:25:35;7.10;;;5.50;;
1613;SDS011;800;48.824;9.346;2023-02-12T11:28:14;10.70;;;6.10;;
1613;SDS011;800;48.824;9.346;2023-02-12T11:33:25;7.03;;;5.73;;
1613;SDS011;800;48.824;9.346;2023-02-12T11:36:00;5.87;;;4.70;;
1613;SDS011;800;48.824;9.346;2023-02-12T11:38:38;5.87;;;4.63;;
1613;SDS011;800;48.824;9.346;2023-02-12T11:41:20;6.83;;;5.30;;
1613;SDS011;800;48.824;9.346;2023-02-12T11:43:50;5.73;;;5.10;;
1613;SDS011;800;48.824;9.346;2023-02-12T11:46:20;7.70;;;5.40;;
1613;SDS011;800;48.824;9.346;2023-02-12T11:48:48;6.07;;;4.50;;
1613;SDS011;800;48.824;9.346;2023-02-12T11:51:20;5.10;;;4.60;;
1613;SDS011;800;48.824;9.346;2023-02-12T11:53:51;6.50;;;5.00;;
1613;SDS011;800;48.824;9.346;2023-02-12T11:56:18;6.90;;;5.17;;
1613;SDS011;800;48.824;9.346;2023-02-12T11:58:48;6.90;;;5.63;;
1613;SDS011;800;48.824;9.346;2023-02-12T12:01:22;6.23;;;5.60;;
1613;SDS011;800;48.824;9.346;2023-02-12T12:03:59;6.37;;;5.33;;
1613;SDS011;800;48.824;9.346;2023-02-12T12:06:35;6.70;;;5.20;;
1613;SDS011;800;48.824;9.346;2023-02-12T12:09:15;7.27;;;5.67;;
1613;SDS011;800;48.824;9.346;2023-02-12T12:14:45;7.43;;;5.07;;
1613;SDS011;800;48.824;9.346;2023-02-12T12:17:55;7.30;;;6.10;;
1613;SDS011;800;48.824;9.346;2023-02-12T12:20:53;8.30;;;5.77;;
1613;SDS011;800;48.824;9.346;2023-02-12T12:23:30;7.30;;;6.10;;
1613;SDS011;800;48.824;9.346;2023-02-12T12:26:03;7.83;;;7.03;;
1613;SDS011;800;48.824;9.346;2023-02-12T12:28:38;6.27;;;4.60;;
1613;SDS011;800;48.824;9.346;2023-02-12T12:31:21;8.20;;;5.70;;
1613;SDS011;800;48.824;9.346;2023-02-12T12:34:01;5.10;;;4.60;;
1613;SDS011;800;48.824;9.346;2023-02-12T12:53:31;6.60;;;5.13;;
1613;SDS011;800;48.824;9.346;2023-02-12T13:09:58;8.20;;;4.90;;
1613;SDS011;800;48.824;9.346;2023-02-12T13:15:16;5.63;;;4.43;;
1613;SDS011;800;48.824;9.346;2023-02-12T13:29:03;6.53;;;4.43;;
1613;SDS011;800;48.824;9.346;2023-02-12T13:31:43;6.47;;;4.50;;
1613;SDS011;800;48.824;9.346;2023-02-12T13:34:13;3.63;;;3.30;;
1613;SDS011;800;48.824;9.346;2023-02-12T13:36:42;5.10;;;3.80;;
1613;SDS011;800;48.824;9.346;2023-02-12T13:41:44;5.10;;;4.03;;
1613;SDS011;800;48.824;9.346;2023-02-12T13:44:21;4.07;;;3.43;;
1613;SDS011;800;48.824;9.346;2023-02-12T13:47:09;3.90;;;3.20;;
1613;SDS011;800;48.824;9.346;2023-02-12T13:50:02;3.37;;;2.70;;
1613;SDS011;800;48.824;9.346;2023-02-12T13:52:30;3.00;;;2.70;;
1613;SDS011;800;48.824;9.346;2023-02-12T13:57:38;3.03;;;2.40;;
1613;SDS011;800;48.824;9.346;2023-02-12T14:00:04;2.50;;;2.30;;
1613;SDS011;800;48.824;9.346;2023-02-12T14:02:50;2.63;;;2.43;;
1613;SDS011;800;48.824;9.346;2023-02-12T14:10:32;3.40;;;2.80;;
1613;SDS011;800;48.824;9.346;2023-02-12T14:13:12;4.87;;;2.73;;
1613;SDS011;800;48.824;9.346;2023-02-12T14:15:48;2.43;;;2.23;;
1613;SDS011;800;48.824;9.346;2023-02-12T14:18:26;2.67;;;2.47;;
1613;SDS011;800;48.824;9.346;2023-02-12T14:23:41;2.57;;;2.17;;
1613;SDS011;800;48.824;9.346;2023-02-12T14:26:09;2.00;;;1.73;;
1613;SDS011;800;48.824;9.346;2023-02-12T14:28:48;2.40;;;2.03;;
1613;SDS011;800;48.824;9.346;2023-02-12T14:33:50;2.40;;;2.20;;
1613;SDS011;800;48.824;9.346;2023-02-12T14:36:40;2.63;;;2.43;;
1613;SDS011;800;48.824;9.346;2023-02-12T14:41:48;2.80;;;2.53;;
1613;SDS011;800;48.824;9.346;2023-02-12T14:46:48;2.13;;;1.97;;
1613;SDS011;800;48.824;9.346;2023-02-12T14:49:25;1.93;;;1.80;;
1613;SDS011;800;48.824;9.346;2023-02-12T14:54:30;2.47;;;2.20;;
1613;SDS011;800;48.824;9.346;2023-02-12T14:57:01;2.50;;;2.30;;
1613;SDS011;800;48.824;9.346;2023-02-12T14:59:32;2.00;;;1.90;;
1613;SDS011;800;48.824;9.346;2023-02-12T15:02:04;2.27;;;2.07;;
1613;SDS011;800;48.824;9.346;2023-02-12T15:04:33;2.60;;;2.40;;
1613;SDS011;800;48.824;9.346;2023-02-12T15:07:08;2.23;;;2.03;;
1613;SDS011;800;48.824;9.346;2023-02-12T15:09:39;2.20;;;2.10;;
1613;SDS011;800;48.824;9.346;2023-02-12T15:12:16;3.17;;;2.60;;
1613;SDS011;800;48.824;9.346;2023-02-12T15:14:47;2.73;;;2.30;;
1613;SDS011;800;48.824;9.346;2023-02-12T15:17:23;4.03;;;2.87;;
1613;SDS011;800;48.824;9.346;2023-02-12T15:19:54;1.97;;;1.87;;
1613;SDS011;800;48.824;9.346;2023-02-12T15:22:33;2.07;;;1.87;;
1613;SDS011;800;48.824;9.346;2023-02-12T15:28:00;2.50;;;2.30;;
1613;SDS011;800;48.824;9.346;2023-02-12T15:30:36;2.80;;;2.43;;
1613;SDS011;800;48.824;9.346;2023-02-12T15:33:06;1.90;;;1.80;;
1613;SDS011;800;48.824;9.346;2023-02-12T15:35:34;2.37;;;2.17;;
1613;SDS011;800;48.824;9.346;2023-02-12T15:38:03;2.23;;;2.00;;
1613;SDS011;800;48.824;9.346;2023-02-12T15:40:32;2.27;;;2.07;;
1613;SDS011;800;48.824;9.346;2023-02-12T15:42:58;2.70;;;2.47;;
1613;SDS011;800;48.824;9.346;2023-02-12T15:45:37;2.43;;;2.23;;
1613;SDS011;800;48.824;9.346;2023-02-12T15:50:49;3.40;;;2.60;;
1613;SDS011;800;48.824;9.346;2023-02-12T15:53:34;2.93;;;2.60;;
1613;SDS011;800;48.824;9.346;2023-02-12T15:56:02;2.63;;;2.30;;
1613;SDS011;800;48.824;9.346;2023-02-12T15:58:29;2.90;;;2.50;;
1613;SDS011;800;48.824;9.346;2023-02-12T16:01:06;2.90;;;2.20;;
1613;SDS011;800;48.824;9.346;2023-02-12T16:03:35;3.00;;;2.70;;
1613;SDS011;800;48.824;9.346;2023-02-12T16:06:03;3.07;;;2.77;;
1613;SDS011;800;48.824;9.346;2023-02-12T16:08:35;2.50;;;2.30;;
1613;SDS011;800;48.824;9.346;2023-02-12T16:11:02;3.10;;;2.80;;
1613;SDS011;800;48.824;9.346;2023-02-12T16:13:37;3.30;;;2.93;;
1613;SDS011;800;48.824;9.346;2023-02-12T16:18:38;3.27;;;2.90;;
1613;SDS011;800;48.824;9.346;2023-02-12T16:21:05;3.60;;;3.30;;
1613;SDS011;800;48.824;9.346;2023-02-12T16:23:31;3.50;;;3.20;;
1613;SDS011;800;48.824;9.346;2023-02-12T16:25:58;3.63;;;3.27;;
1613;SDS011;800;48.824;9.346;2023-02-12T16:28:28;3.57;;;3.00;;
1613;SDS011;800;48.824;9.346;2023-02-12T16:31:08;3.00;;;2.70;;
1613;SDS011;800;48.824;9.346;2023-02-12T16:38:41;7.43;;;3.63;;
1613;SDS011;800;48.824;9.346;2023-02-12T16:44:20;4.10;;;3.70;;
1613;SDS011;800;48.824;9.346;2023-02-12T16:46:54;3.37;;;2.80;;
1613;SDS011;800;48.824;9.346;2023-02-12T16:49:23;4.33;;;3.80;;
1613;SDS011;800;48.824;9.346;2023-02-12T16:51:50;4.67;;;3.87;;
1613;SDS011;800;48.824;9.346;2023-02-12T16:54:33;7.97;;;3.50;;
1613;SDS011;800;48.824;9.346;2023-02-12T16:56:59;9.90;;;7.00;;
1613;SDS011;800;48.824;9.346;2023-02-12T16:59:26;4.73;;;4.00;;
1613;SDS011;800;48.824;9.346;2023-02-12T17:04:28;5.93;;;4.27;;
1613;SDS011;800;48.824;9.346;2023-02-12T17:06:54;4.90;;;4.30;;
1613;SDS011;800;48.824;9.346;2023-02-12T17:09:20;5.47;;;4.83;;
1613;SDS011;800;48.824;9.346;2023-02-12T17:11:46;6.40;;;5.47;;
1613;SDS011;800;48.824;9.346;2023-02-12T17:14:13;6.30;;;4.93;;
1613;SDS011;800;48.824;9.346;2023-02-12T17:16:41;7.13;;;5.70;;
1613;SDS011;800;48.824;9.346;2023-02-12T17:19:07;6.90;;;5.50;;
1613;SDS011;800;48.824;9.346;2023-02-12T17:21:33;8.30;;;4.90;;
1613;SDS011;800;48.824;9.346;2023-02-12T17:24:15;6.90;;;5.37;;
1613;SDS011;800;48.824;9.346;2023-02-12T17:26:46;7.27;;;6.00;;
1613;SDS011;800;48.824;9.346;2023-02-12T17:29:14;6.30;;;5.50;;
1613;SDS011;800;48.824;9.346;2023-02-12T17:31:43;8.10;;;5.67;;
1613;SDS011;800;48.824;9.346;2023-02-12T17:34:08;7.30;;;6.07;;
1613;SDS011;800;48.824;9.346;2023-02-12T17:36:34;6.27;;;5.53;;
1613;SDS011;800;48.824;9.346;2023-02-12T17:39:02;8.10;;;6.40;;
1613;SDS011;800;48.824;9.346;2023-02-12T17:41:30;7.00;;;5.93;;
1613;SDS011;800;48.824;9.346;2023-02-12T17:43:56;7.10;;;5.90;;
1613;SDS011;800;48.824;9.346;2023-02-12T17:46:22;8.97;;;6.77;;
1613;SDS011;800;48.824;9.346;2023-02-12T17:48:50;9.30;;;7.33;;
1613;SDS011;800;48.824;9.346;2023-02-12T17:51:16;10.80;;;8.47;;
1613;SDS011;800;48.824;9.346;2023-02-12T17:53:42;11.83;;;9.70;;
1613;SDS011;800;48.824;9.346;2023-02-12T17:56:11;13.67;;;9.40;;
1613;SDS011;800;48.824;9.346;2023-02-12T17:58:39;9.53;;;7.47;;
1613;SDS011;800;48.824;9.346;2023-02-12T18:01:06;10.73;;;8.00;;
1613;SDS011;800;48.824;9.346;2023-02-12T18:03:32;9.60;;;8.27;;
1613;SDS011;800;48.824;9.346;2023-02-12T18:05:58;9.07;;;7.80;;
1613;SDS011;800;48.824;9.346;2023-02-12T18:08:24;8.13;;;6.50;;
1613;SDS011;800;48.824;9.346;2023-02-12T18:10:49;7.30;;;6.60;;
1613;SDS011;800;48.824;9.346;2023-02-12T18:13:15;7.93;;;6.93;;
1613;SDS011;800;48.824;9.346;2023-02-12T18:15:40;10.70;;;7.20;;
1613;SDS011;800;48.824;9.346;2023-02-12T18:18:06;8.73;;;6.27;;
1613;SDS011;800;48.824;9.346;2023-02-12T18:20:32;11.20;;;6.47;;
1613;SDS011;800;48.824;9.346;2023-02-12T18:22:58;7.37;;;6.30;;
1613;SDS011;800;48.824;9.346;2023-02-12T18:25:23;8.17;;;7.20;;
1613;SDS011;800;48.824;9.346;2023-02-12T18:27:49;9.37;;;7.10;;